Time;durP1;ratioP1;P1;durP2;ratioP2;P2;SDS_P1;SDS_P2;PMS_P1;PMS_P2;Temp;Humidity;BMP_temperature;BMP_pressure;BME280_temperature;BME280_humidity;BME280_pressure;Samples;Min_cycle;Max_cycle;Signal;HPM_P1;HPM_P2
2023/01/12 00:01:43;;;;;;;4.65;0.93;;;7.10;99.90;;;;;;4957338;28;20027;-92
2023/01/12 00:04:12;;;;;;;3.85;0.65;;;7.10;99.90;;;;;;4940026;29;20027;-91
2023/01/12 00:06:38;;;;;;;1.73;0.50;;;7.10;99.90;;;;;;4971782;28;20023;-93
2023/01/12 00:09:08;;;;;;;2.70;0.60;;;7.10;99.90;;;;;;4939703;29;20030;-92
2023/01/12 00:11:35;;;;;;;1.80;0.40;;;7.10;99.90;;;;;;4939345;29;20023;-94
2023/01/12 00:14:01;;;;;;;3.58;0.60;;;7.20;99.90;;;;;;4939335;29;20501;-92
2023/01/12 00:16:33;;;;;;;2.83;0.40;;;7.20;99.90;;;;;;4956811;28;20027;-93
2023/01/12 00:19:11;;;;;;;1.23;0.45;;;7.20;99.90;;;;;;4940078;29;20049;-94
2023/01/12 00:21:58;;;;;;;0.80;0.20;;;7.30;99.90;;;;;;4939812;29;20034;-92
2023/01/12 00:24:28;;;;;;;0.25;0.10;;;7.30;99.90;;;;;;4944310;29;20023;-92
2023/01/12 00:26:55;;;;;;;0.10;0.10;;;7.40;99.90;;;;;;4956823;29;20028;-91
2023/01/12 00:29:22;;;;;;;0.13;0.10;;;7.40;99.90;;;;;;4943333;29;20034;-92
2023/01/12 00:31:48;;;;;;;1.65;0.20;;;7.50;99.90;;;;;;4955930;28;20081;-92
2023/01/12 00:34:14;;;;;;;0.63;0.28;;;7.60;99.90;;;;;;4939412;29;20059;-91
2023/01/12 00:36:41;;;;;;;0.43;0.30;;;7.70;99.90;;;;;;4955999;29;20526;-91
2023/01/12 00:39:10;;;;;;;0.57;0.10;;;7.70;99.90;;;;;;4938589;29;20031;-91
2023/01/12 00:47:10;;;;;;;0.10;0.10;;;8.10;99.90;;;;;;4956429;29;20083;-91
2023/01/12 00:49:40;;;;;;;0.30;0.20;;;8.20;99.90;;;;;;4937170;29;20055;-91
2023/01/12 00:52:07;;;;;;;0.10;0.10;;;8.30;99.90;;;;;;4935888;29;20027;-89
2023/01/12 00:54:33;;;;;;;2.20;0.32;;;8.40;99.90;;;;;;4954733;29;20039;-92
2023/01/12 00:56:59;;;;;;;0.60;0.28;;;8.40;99.90;;;;;;4938397;29;20082;-92
2023/01/12 00:59:25;;;;;;;1.98;0.40;;;8.50;99.90;;;;;;4937494;28;20051;-90
2023/01/12 01:01:54;;;;;;;0.75;0.30;;;8.50;99.90;;;;;;4949539;28;20034;-90
2023/01/12 01:04:20;;;;;;;2.17;0.50;;;8.50;99.90;;;;;;4955485;29;20059;-89
2023/01/12 01:06:46;;;;;;;0.85;0.30;;;8.60;99.90;;;;;;4955019;29;20046;-88
2023/01/12 01:09:12;;;;;;;2.42;0.20;;;8.70;99.90;;;;;;4938513;29;20424;-90
2023/01/12 01:11:38;;;;;;;1.58;0.30;;;8.70;99.90;;;;;;4938142;29;20050;-90
2023/01/12 01:14:04;;;;;;;1.15;0.35;;;8.80;99.90;;;;;;4955616;29;20066;-91
2023/01/12 01:16:33;;;;;;;2.75;0.47;;;8.90;99.90;;;;;;4937205;28;20054;-92
2023/01/12 01:18:59;;;;;;;2.50;0.50;;;9.00;99.90;;;;;;4954432;28;20389;-90
2023/01/12 01:21:26;;;;;;;2.30;0.60;;;9.10;99.90;;;;;;4938619;29;20485;-91
2023/01/12 01:23:52;;;;;;;1.38;0.70;;;9.20;99.90;;;;;;4934625;28;20066;-89
2023/01/12 01:26:20;;;;;;;3.10;1.77;;;9.20;99.90;;;;;;4951391;29;20023;-89
2023/01/12 01:28:47;;;;;;;4.78;0.50;;;9.30;99.90;;;;;;4953541;29;20031;-88
2023/01/12 01:31:23;;;;;;;1.90;0.20;;;9.40;99.90;;;;;;4940663;29;20042;-90
2023/01/12 01:33:50;;;;;;;2.25;0.60;;;9.50;99.90;;;;;;4957041;29;20035;-89
2023/01/12 01:36:16;;;;;;;1.63;0.60;;;9.50;99.90;;;;;;4959481;29;20019;-89
2023/01/12 01:38:43;;;;;;;1.90;0.40;;;9.50;99.90;;;;;;4941375;29;20031;-90
2023/01/12 01:41:20;;;;;;;2.47;0.43;;;9.50;99.90;;;;;;4938877;28;20023;-90
2023/01/12 01:44:00;;;;;;;4.15;0.73;;;9.60;99.90;;;;;;4940586;29;20031;-90
2023/01/12 01:46:49;;;;;;;5.30;1.20;;;9.60;99.90;;;;;;4941478;29;20022;-90
2023/01/12 01:49:29;;;;;;;4.80;0.68;;;9.60;99.90;;;;;;4937321;29;20035;-91
2023/01/12 01:52:10;;;;;;;6.90;0.88;;;9.60;99.90;;;;;;4954964;29;20023;-91
2023/01/12 01:54:41;;;;;;;3.45;0.80;;;9.70;99.90;;;;;;4954953;29;20039;-91
2023/01/12 01:57:09;;;;;;;3.60;0.52;;;9.70;99.90;;;;;;4938521;29;20019;-90
2023/01/12 01:59:40;;;;;;;5.43;1.25;;;9.70;99.90;;;;;;4939832;29;20066;-92
2023/01/12 02:02:06;;;;;;;6.60;1.27;;;9.80;99.90;;;;;;4954887;29;20106;-91
2023/01/12 02:04:32;;;;;;;5.22;0.85;;;9.80;99.90;;;;;;4937828;29;20114;-92
2023/01/12 02:07:00;;;;;;;6.50;0.95;;;9.90;99.90;;;;;;4937924;29;20023;-92
2023/01/12 02:09:27;;;;;;;5.95;1.33;;;9.80;99.90;;;;;;4954524;29;20453;-92
2023/01/12 02:17:56;;;;;;;3.00;0.70;;;9.90;99.90;;;;;;4950256;28;20099;-91
2023/01/12 02:20:34;;;;;;;4.93;1.15;;;9.90;99.90;;;;;;4934696;29;20114;-92
2023/01/12 02:22:59;;;;;;;5.32;1.05;;;9.90;99.90;;;;;;4937294;29;20023;-92
2023/01/12 02:26:13;;;;;;;12.85;1.42;;;9.90;99.90;;;;;;4937406;29;20373;-93
2023/01/12 02:28:57;;;;;;;4.45;0.60;;;9.90;99.90;;;;;;4955023;29;20477;-91
2023/01/12 02:31:46;;;;;;;6.80;1.42;;;9.90;99.90;;;;;;4953698;29;20023;-90
2023/01/12 02:34:47;;;;;;;8.48;1.00;;;9.90;99.90;;;;;;4954018;29;20073;-91
2023/01/12 02:37:33;;;;;;;;;;;9.90;99.90;;;;;;4936565;29;20019;-92
2023/01/12 02:40:15;;;;;;;5.32;0.85;;;9.90;99.90;;;;;;4952379;29;19906;-92
2023/01/12 02:43:00;;;;;;;5.65;0.80;;;9.90;99.90;;;;;;4937749;29;20053;-92
2023/01/12 02:45:41;;;;;;;13.32;2.08;;;9.90;99.90;;;;;;4937461;29;20027;-92
2023/01/12 02:48:26;;;;;;;;;;;9.90;99.90;;;;;;4937649;29;20046;-92
2023/01/12 02:50:56;;;;;;;5.60;1.02;;;9.90;99.90;;;;;;4952955;29;19957;-94
2023/01/12 02:53:51;;;;;;;10.88;1.80;;;9.90;99.90;;;;;;4937072;29;20027;-92
2023/01/12 02:56:43;;;;;;;5.18;1.00;;;9.90;99.90;;;;;;4957683;29;20055;-94
2023/01/12 02:59:23;;;;;;;6.35;1.52;;;9.90;99.90;;;;;;4954995;29;20051;-91
2023/01/12 03:01:51;;;;;;;7.10;1.13;;;9.90;99.90;;;;;;4940708;29;20027;-92
2023/01/12 03:04:18;;;;;;;7.88;1.33;;;9.90;99.90;;;;;;4957336;29;20034;-91
2023/01/12 03:06:56;;;;;;;6.63;1.25;;;9.90;99.90;;;;;;4957440;29;20102;-91
2023/01/12 03:09:30;;;;;;;4.90;0.75;;;10.00;99.90;;;;;;4939311;29;20034;-91
2023/01/12 03:12:02;;;;;;;7.85;1.52;;;10.00;99.90;;;;;;4940102;29;20023;-92
2023/01/12 03:14:33;;;;;;;14.90;1.23;;;10.00;99.90;;;;;;4957196;29;20416;-93
2023/01/12 03:17:02;;;;;;;15.65;2.13;;;10.00;99.90;;;;;;4956671;28;20038;-91
2023/01/12 03:19:31;;;;;;;11.63;2.47;;;10.00;99.90;;;;;;4940213;29;20031;-91
2023/01/12 03:22:02;;;;;;;8.90;1.67;;;9.90;99.90;;;;;;4939851;29;20035;-92
2023/01/12 03:24:36;;;;;;;;;;;9.90;99.90;;;;;;4940605;29;20042;-91
2023/01/12 03:27:08;;;;;;;2.40;0.80;;;9.90;99.90;;;;;;4939900;29;19914;-91
2023/01/12 03:29:41;;;;;;;5.43;1.48;;;9.90;99.90;;;;;;4940192;29;20028;-91
2023/01/12 03:32:07;;;;;;;6.75;1.40;;;10.00;99.90;;;;;;4940288;29;20110;-91
2023/01/12 03:34:33;;;;;;;8.88;1.50;;;10.00;99.90;;;;;;4940130;29;20135;-91
2023/01/12 03:37:34;;;;;;;11.57;1.67;;;10.00;99.90;;;;;;4956506;29;20027;-92
2023/01/12 03:40:00;;;;;;;9.40;1.70;;;10.00;99.90;;;;;;4939442;29;20557;-91
2023/01/12 03:42:52;;;;;;;8.00;1.50;;;10.00;99.90;;;;;;4939811;29;20113;-92
2023/01/12 03:45:35;;;;;;;6.18;1.40;;;9.90;99.90;;;;;;4882818;29;20039;-90
2023/01/12 03:48:06;;;;;;;11.38;1.45;;;9.90;99.90;;;;;;4882306;29;20037;-93
2023/01/12 03:50:47;;;;;;;7.85;1.83;;;9.90;99.90;;;;;;4898162;29;20064;-91
2023/01/12 03:53:15;;;;;;;10.18;2.47;;;9.90;99.90;;;;;;4882208;29;20035;-91
2023/01/12 03:55:43;;;;;;;7.88;1.77;;;9.90;99.90;;;;;;4882567;29;20100;-91
2023/01/12 03:58:09;;;;;;;6.22;1.60;;;9.90;99.90;;;;;;4883477;29;20020;-92
2023/01/12 04:00:35;;;;;;;10.63;2.33;;;9.80;99.90;;;;;;4897747;29;20151;-96
2023/01/12 04:03:09;;;;;;;4.55;1.52;;;9.80;99.90;;;;;;4882050;29;20039;-92
2023/01/12 04:05:35;;;;;;;4.80;1.00;;;9.80;99.90;;;;;;4881017;29;20036;-92
2023/01/12 04:08:00;;;;;;;4.50;0.80;;;9.80;99.90;;;;;;4882119;29;20024;-93
2023/01/12 04:10:26;;;;;;;3.28;0.70;;;9.80;99.90;;;;;;4881840;29;20486;-92
2023/01/12 04:12:52;;;;;;;3.67;0.47;;;9.80;99.90;;;;;;4881359;29;20032;-92
2023/01/12 04:15:17;;;;;;;1.27;0.30;;;9.80;99.90;;;;;;4897330;29;20123;-91
2023/01/12 04:17:43;;;;;;;1.48;0.55;;;9.70;99.90;;;;;;4897249;29;20084;-90
2023/01/12 04:20:09;;;;;;;2.03;0.35;;;9.70;99.90;;;;;;4881614;29;20032;-91
2023/01/12 04:22:44;;;;;;;1.55;0.47;;;9.70;99.90;;;;;;4919127;29;20039;-93
2023/01/12 04:25:13;;;;;;;8.35;1.33;;;9.70;99.90;;;;;;4952127;29;20060;-92
2023/01/12 04:27:49;;;;;;;2.13;0.73;;;9.60;99.90;;;;;;4955973;29;20067;-93
2023/01/12 04:30:17;;;;;;;1.80;0.47;;;9.60;99.90;;;;;;4956287;29;20033;-93
2023/01/12 04:32:44;;;;;;;4.25;0.68;;;9.50;99.90;;;;;;4960155;29;20057;-92
2023/01/12 04:35:11;;;;;;;0.95;0.30;;;9.50;99.90;;;;;;4946345;29;20089;-91
2023/01/12 04:37:37;;;;;;;1.02;0.68;;;9.50;99.90;;;;;;4963396;29;20024;-92
2023/01/12 04:40:04;;;;;;;0.32;0.15;;;9.40;99.90;;;;;;4945971;29;20039;-92
2023/01/12 04:45:14;;;;;;;5.32;0.73;;;9.30;99.90;;;;;;4958262;29;20535;-93
2023/01/12 04:47:39;;;;;;;0.22;0.20;;;9.30;99.90;;;;;;4941133;29;20094;-93
2023/01/12 04:50:06;;;;;;;0.70;0.10;;;9.20;99.90;;;;;;4939820;29;20114;-92
2023/01/12 04:52:31;;;;;;;1.92;0.77;;;9.20;99.90;;;;;;4956752;29;20027;-91
2023/01/12 04:54:57;;;;;;;1.98;0.22;;;9.20;99.90;;;;;;4939460;29;20048;-93
2023/01/12 04:57:23;;;;;;;3.45;0.40;;;9.20;99.90;;;;;;4933726;29;20244;-90
2023/01/12 04:59:48;;;;;;;8.85;1.02;;;9.10;99.90;;;;;;4938221;29;20039;-91
2023/01/12 05:02:14;;;;;;;1.15;0.57;;;9.10;99.90;;;;;;4938245;29;20082;-90
2023/01/12 05:04:41;;;;;;;8.68;0.90;;;9.10;99.90;;;;;;4955170;29;20027;-92
2023/01/12 05:07:07;;;;;;;3.10;0.70;;;9.10;99.90;;;;;;4955675;29;20027;-92
2023/01/12 05:12:18;;;;;;;3.00;0.52;;;9.10;99.90;;;;;;4955772;29;20033;-93
2023/01/12 05:14:44;;;;;;;1.50;0.28;;;9.00;99.90;;;;;;4938164;29;20068;-93
2023/01/12 05:17:09;;;;;;;0.68;0.20;;;9.00;99.90;;;;;;4937384;29;20022;-91
2023/01/12 05:19:35;;;;;;;1.25;0.10;;;9.00;99.90;;;;;;4938791;29;20035;-93
2023/01/12 05:22:00;;;;;;;1.65;0.30;;;9.00;99.90;;;;;;4938284;29;20050;-91
2023/01/12 05:24:26;;;;;;;2.72;0.30;;;9.00;99.90;;;;;;4938230;29;20042;-90
2023/01/12 05:26:52;;;;;;;4.30;0.60;;;9.00;99.90;;;;;;4955074;29;20062;-91
2023/01/12 05:29:17;;;;;;;2.70;0.82;;;9.00;99.90;;;;;;4937830;29;20090;-92
2023/01/12 05:31:43;;;;;;;5.95;0.70;;;9.00;99.90;;;;;;4937792;29;20482;-90
2023/01/12 05:34:08;;;;;;;4.13;0.73;;;9.00;99.90;;;;;;4937491;29;20139;-91
2023/01/12 05:36:34;;;;;;;6.30;0.93;;;8.90;99.90;;;;;;4937406;29;20039;-90
2023/01/12 05:39:00;;;;;;;4.10;0.63;;;8.90;99.90;;;;;;4954996;29;20109;-90
2023/01/12 05:41:25;;;;;;;5.97;0.80;;;8.90;99.90;;;;;;4937874;29;20535;-91
2023/01/12 05:43:51;;;;;;;5.32;1.10;;;8.90;99.90;;;;;;4955044;29;20046;-91
2023/01/12 05:46:29;;;;;;;7.95;1.17;;;8.90;99.90;;;;;;4937875;29;20027;-92
2023/01/12 05:48:56;;;;;;;3.78;1.02;;;8.90;99.90;;;;;;4954538;29;20106;-90
2023/01/12 05:51:24;;;;;;;7.10;1.00;;;8.90;99.90;;;;;;4937523;29;20489;-92
2023/01/12 05:53:49;;;;;;;3.92;0.70;;;8.90;99.90;;;;;;4937823;29;20035;-91
2023/01/12 05:56:19;;;;;;;2.38;0.52;;;8.90;99.90;;;;;;4937532;29;20130;-91
2023/01/12 05:58:53;;;;;;;2.78;0.52;;;8.90;99.90;;;;;;4951871;29;20122;-93
2023/01/12 06:01:19;;;;;;;1.45;0.32;;;9.00;99.90;;;;;;4937436;29;20114;-92
2023/01/12 06:03:53;;;;;;;1.20;0.25;;;8.90;99.90;;;;;;4955258;29;20016;-92
2023/01/12 06:06:21;;;;;;;0.35;0.20;;;9.00;99.90;;;;;;4954923;29;20034;-92
2023/01/12 06:08:47;;;;;;;1.52;0.35;;;8.90;99.90;;;;;;4937086;29;20509;-92
2023/01/12 06:13:59;;;;;;;3.72;1.65;;;9.00;99.90;;;;;;4953432;29;20098;-90
2023/01/12 06:16:26;;;;;;;2.22;1.60;;;9.00;99.90;;;;;;4936938;29;20049;-91
2023/01/12 06:18:52;;;;;;;3.88;2.10;;;9.00;99.90;;;;;;4954207;28;20058;-90
2023/01/12 06:21:18;;;;;;;5.07;2.10;;;9.00;99.90;;;;;;4936989;29;20035;-90
2023/01/12 06:23:43;;;;;;;4.78;2.47;;;9.00;99.90;;;;;;4937119;29;20436;-90
2023/01/12 06:26:09;;;;;;;12.85;2.45;;;9.00;99.90;;;;;;4936949;29;20030;-91
2023/01/12 06:28:36;;;;;;;15.13;2.40;;;9.00;99.90;;;;;;4937749;29;20031;-91
2023/01/12 06:31:04;;;;;;;22.58;2.72;;;9.00;99.90;;;;;;4941164;29;20362;-91
2023/01/12 06:33:30;;;;;;;18.88;2.63;;;9.00;99.90;;;;;;4941065;29;20058;-90
2023/01/12 06:35:57;;;;;;;11.27;1.90;;;9.10;99.90;;;;;;4957974;29;20449;-91
2023/01/12 06:38:25;;;;;;;13.57;1.92;;;9.10;99.90;;;;;;4940927;29;20022;-91
2023/01/12 06:40:51;;;;;;;21.30;3.65;;;9.10;99.90;;;;;;4941044;29;20030;-90
2023/01/12 06:43:17;;;;;;;18.67;2.25;;;9.10;99.90;;;;;;4940752;29;20033;-90
2023/01/12 06:45:43;;;;;;;15.07;2.55;;;9.10;99.90;;;;;;4957659;29;20023;-90
2023/01/12 06:48:09;;;;;;;9.80;2.10;;;9.10;99.90;;;;;;4956235;29;20023;-91
2023/01/12 06:50:35;;;;;;;22.13;2.78;;;9.10;99.90;;;;;;4939893;29;20035;-91
2023/01/12 06:53:03;;;;;;;14.93;2.15;;;9.10;99.90;;;;;;4924064;29;20485;-91
2023/01/12 06:55:29;;;;;;;15.88;2.15;;;9.10;99.90;;;;;;4939696;29;20082;-92
2023/01/12 06:57:55;;;;;;;19.98;2.22;;;9.10;99.90;;;;;;4939959;29;20049;-91
2023/01/12 07:00:21;;;;;;;16.38;2.45;;;9.10;99.90;;;;;;4939415;29;20485;-91
2023/01/12 07:02:51;;;;;;;14.68;2.13;;;9.10;99.90;;;;;;4956741;29;20023;-92
2023/01/12 07:05:17;;;;;;;14.98;2.00;;;9.10;99.90;;;;;;4938451;29;20051;-91
2023/01/12 07:07:43;;;;;;;11.18;2.13;;;9.10;99.90;;;;;;4939773;29;20066;-90
2023/01/12 07:10:10;;;;;;;11.70;1.45;;;9.10;99.90;;;;;;4939941;29;20027;-90
2023/01/12 07:12:36;;;;;;;16.60;2.45;;;9.00;99.90;;;;;;4938834;29;20113;-90
2023/01/12 07:15:02;;;;;;;11.75;2.00;;;9.10;99.90;;;;;;4939632;29;20552;-91
2023/01/12 07:17:29;;;;;;;14.05;1.83;;;9.00;99.90;;;;;;4939697;29;20034;-92
2023/01/12 07:19:55;;;;;;;12.52;2.50;;;9.00;99.90;;;;;;4924191;29;20477;-92
2023/01/12 07:22:21;;;;;;;12.32;1.42;;;8.90;99.90;;;;;;4956699;29;20026;-91
2023/01/12 07:24:46;;;;;;;9.52;1.70;;;8.90;99.90;;;;;;4939649;29;20023;-89
2023/01/12 07:27:15;;;;;;;13.38;1.85;;;8.90;99.90;;;;;;4939488;29;20366;-90
2023/01/12 07:29:40;;;;;;;19.90;2.40;;;8.90;99.90;;;;;;4939705;29;20469;-91
2023/01/12 07:32:06;;;;;;;10.93;2.03;;;8.90;99.90;;;;;;4940171;29;20030;-90
2023/01/12 07:34:32;;;;;;;13.23;2.50;;;8.90;99.90;;;;;;4957336;29;20503;-91
2023/01/12 07:36:57;;;;;;;14.57;1.88;;;8.80;99.90;;;;;;4943124;29;20043;-90
2023/01/12 07:39:23;;;;;;;14.88;2.17;;;8.80;99.90;;;;;;4945427;29;20023;-91
2023/01/12 07:44:33;;;;;;;19.13;3.22;;;8.70;99.90;;;;;;4960708;29;20094;-90
2023/01/12 07:46:59;;;;;;;10.57;1.83;;;8.80;99.90;;;;;;4942891;29;20401;-91
2023/01/12 07:49:25;;;;;;;10.95;1.38;;;8.80;99.90;;;;;;4941214;29;20558;-92
2023/01/12 07:51:55;;;;;;;15.98;1.42;;;8.80;99.90;;;;;;4941177;29;20122;-92
2023/01/12 07:54:21;;;;;;;13.30;3.60;;;8.80;99.90;;;;;;4958512;29;20062;-91
2023/01/12 07:56:47;;;;;;;11.30;1.70;;;8.80;99.90;;;;;;4957992;29;20027;-91
2023/01/12 07:59:13;;;;;;;14.50;1.48;;;8.90;99.90;;;;;;4940946;29;20046;-91
2023/01/12 08:01:39;;;;;;;10.98;2.17;;;8.80;99.90;;;;;;4941276;29;20167;-91
2023/01/12 08:04:05;;;;;;;14.15;1.33;;;8.90;99.90;;;;;;4940859;29;20032;-92
2023/01/12 08:06:31;;;;;;;8.55;1.42;;;8.90;99.90;;;;;;4940789;29;20027;-91
2023/01/12 08:08:57;;;;;;;9.75;1.92;;;8.80;99.90;;;;;;4958231;29;20489;-90
2023/01/12 08:11:22;;;;;;;13.68;2.40;;;8.90;99.90;;;;;;4957721;29;20393;-92
2023/01/12 08:13:53;;;;;;;10.73;2.05;;;8.90;99.90;;;;;;4940720;29;20040;-91
2023/01/12 08:16:24;;;;;;;16.55;2.25;;;8.80;99.90;;;;;;4940423;29;20023;-92
2023/01/12 08:19:03;;;;;;;8.70;1.35;;;8.80;99.90;;;;;;4958022;28;20035;-92
2023/01/12 08:21:38;;;;;;;10.43;2.42;;;8.80;99.90;;;;;;4940442;29;20024;-91
2023/01/12 08:24:07;;;;;;;9.40;1.55;;;8.90;99.90;;;;;;4957728;29;20031;-91
2023/01/12 08:26:38;;;;;;;11.47;2.17;;;8.90;99.90;;;;;;4957184;29;20028;-91
2023/01/12 08:29:31;;;;;;;16.27;2.25;;;8.90;99.90;;;;;;4941295;29;20074;-92
2023/01/12 08:32:05;;;;;;;12.57;2.47;;;8.90;99.90;;;;;;4952218;29;20070;-89
2023/01/12 08:34:32;;;;;;;13.82;1.70;;;8.90;99.90;;;;;;4939913;29;20046;-89
2023/01/12 08:37:02;;;;;;;14.10;2.03;;;9.00;99.90;;;;;;4957181;29;20027;-92
2023/01/12 08:39:28;;;;;;;14.47;2.43;;;9.00;99.90;;;;;;4957028;29;20465;-92
2023/01/12 08:41:54;;;;;;;10.38;1.85;;;9.10;99.90;;;;;;4940056;29;20038;-90
2023/01/12 08:44:20;;;;;;;9.88;1.20;;;9.10;99.90;;;;;;4941946;29;20024;-95
2023/01/12 08:46:58;;;;;;;12.23;2.75;;;9.10;99.90;;;;;;4967634;29;20024;-94
2023/01/12 08:49:29;;;;;;;13.65;1.75;;;9.10;99.90;;;;;;4960113;29;20054;-96
2023/01/12 08:51:59;;;;;;;5.80;1.35;;;9.20;99.90;;;;;;4960051;29;20031;-95
2023/01/12 08:54:28;;;;;;;15.15;1.73;;;9.20;99.90;;;;;;4959602;29;20118;-95
2023/01/12 08:57:18;;;;;;;9.40;2.25;;;9.20;99.90;;;;;;4958555;29;20035;-96
2023/01/12 09:03:00;;;;;;;9.23;1.90;;;9.20;99.90;;;;;;4977388;28;20294;-96
2023/01/12 09:05:26;;;;;;;9.20;2.22;;;9.20;99.90;;;;;;4959571;29;20544;-96
2023/01/12 09:08:10;;;;;;;11.35;1.45;;;9.20;99.90;;;;;;4943310;29;20047;-96
2023/01/12 09:10:36;;;;;;;11.07;1.70;;;9.30;99.90;;;;;;4960606;28;20031;-93
2023/01/12 09:13:05;;;;;;;9.20;1.13;;;9.30;99.90;;;;;;4961739;29;20019;-95
2023/01/12 09:15:42;;;;;;;4.10;0.85;;;9.30;99.90;;;;;;4975289;28;20078;-93
2023/01/12 09:18:38;;;;;;;6.75;1.50;;;9.30;99.90;;;;;;4953638;29;20031;-95
2023/01/12 09:21:33;;;;;;;6.05;1.63;;;9.30;99.90;;;;;;4973811;29;20066;-95
2023/01/12 09:24:02;;;;;;;11.23;1.48;;;9.30;99.90;;;;;;4954901;29;20127;-94
2023/01/12 09:26:43;;;;;;;7.43;2.30;;;9.40;99.90;;;;;;4955901;29;20035;-94
2023/01/12 09:29:29;;;;;;;9.50;1.52;;;9.40;99.90;;;;;;4942459;28;20099;-96
2023/01/12 09:32:24;;;;;;;12.88;2.05;;;9.50;99.90;;;;;;4977881;28;20031;-95
2023/01/12 09:34:53;;;;;;;10.32;1.63;;;9.50;99.90;;;;;;4976266;28;20027;-94
2023/01/12 09:37:20;;;;;;;6.70;1.10;;;9.50;99.90;;;;;;4945887;28;20058;-95
2023/01/12 09:39:47;;;;;;;8.50;1.73;;;9.50;99.90;;;;;;4977158;28;20095;-95
2023/01/12 09:49:01;;;;;;;8.02;1.05;;;9.70;99.90;;;;;;4968566;29;20066;-95
2023/01/12 09:51:59;;;;;;;12.27;1.25;;;9.70;99.90;;;;;;4956720;29;20015;-94
2023/01/12 09:54:55;;;;;;;6.55;1.15;;;9.80;99.90;;;;;;4958389;28;20039;-94
2023/01/12 10:01:05;;;;;;;4.43;0.70;;;9.80;99.90;;;;;;4973349;28;20087;-95
2023/01/12 10:03:48;;;;;;;5.07;0.95;;;9.80;99.90;;;;;;4972344;28;20027;-95
2023/01/12 10:06:20;;;;;;;7.68;0.65;;;9.80;99.90;;;;;;4956844;29;20035;-96
2023/01/12 10:09:03;;;;;;;;;;;9.90;99.90;;;;;;4953172;29;20054;-94
2023/01/12 10:12:17;;;;;;;3.88;0.80;;;9.90;99.90;;;;;;4953074;29;19929;-95
2023/01/12 10:15:22;;;;;;;3.17;0.50;;;9.90;99.90;;;;;;4955273;29;20035;-95
2023/01/12 10:18:10;;;;;;;2.65;0.65;;;9.90;99.90;;;;;;4952957;29;20039;-96
2023/01/12 10:21:10;;;;;;;1.77;0.63;;;9.90;99.90;;;;;;4971288;29;20062;-94
2023/01/12 10:23:39;;;;;;;3.25;0.57;;;10.00;99.90;;;;;;4960971;29;20100;-95
2023/01/12 10:26:30;;;;;;;3.85;0.70;;;10.10;99.90;;;;;;4948345;29;20031;-95
2023/01/12 10:29:49;;;;;;;2.55;0.52;;;10.10;99.90;;;;;;4952070;29;20051;-96
2023/01/12 10:32:20;;;;;;;1.67;0.60;;;10.10;99.90;;;;;;4950533;29;20042;-95
2023/01/12 10:35:14;;;;;;;5.07;0.77;;;10.20;99.90;;;;;;4968427;29;20062;-95
2023/01/12 10:38:18;;;;;;;7.93;0.82;;;10.20;99.90;;;;;;4952953;29;20084;-96
2023/01/12 10:41:12;;;;;;;4.03;0.70;;;10.20;99.90;;;;;;4915637;29;20040;-95
2023/01/12 10:44:23;;;;;;;2.40;0.90;;;10.30;99.90;;;;;;4924478;29;20040;-96
2023/01/12 10:47:17;;;;;;;;;;;10.30;99.90;;;;;;4899544;29;20036;-95
2023/01/12 10:50:36;;;;;;;1.73;0.70;;;10.30;99.90;;;;;;4926152;29;20080;-95
2023/01/12 10:57:18;;;;;;;;;;;;;;;;;;;;;
2023/01/12 11:07:28;;;;;;;2.15;0.70;;;10.60;99.90;;;;;;4909137;29;20041;-95
2023/01/12 11:13:42;;;;;;;3.17;0.60;;;10.80;99.90;;;;;;4907061;29;20043;-96
2023/01/12 11:23:06;;;;;;;1.17;0.63;;;11.00;99.90;;;;;;4924358;29;20043;-95
2023/01/12 11:29:42;;;;;;;0.77;0.30;;;11.00;99.90;;;;;;4918438;29;20040;-95
2023/01/12 11:32:45;;;;;;;4.28;0.90;;;10.90;99.90;;;;;;4889817;29;20040;-96
2023/01/12 11:39:31;;;;;;;;;;;;;;;;;;;;;
2023/01/12 11:46:17;;;;;;;2.42;0.73;;;11.00;99.90;;;;;;4903680;29;20033;-95
2023/01/12 11:53:16;;;;;;;;;;;;;;;;;;;;;
2023/01/12 11:59:37;;;;;;;8.88;1.13;;;11.10;99.90;;;;;;4791254;30;20120;-95
2023/01/12 12:03:11;;;;;;;;;;;;;;;;;;;;;
2023/01/12 12:05:49;;;;;;;6.15;1.83;;;11.10;99.90;;;;;;4771616;30;20048;-95
2023/01/12 12:08:54;;;;;;;6.18;1.15;;;11.00;99.90;;;;;;4770169;30;20040;-95
2023/01/12 12:11:45;;;;;;;3.28;1.17;;;11.00;99.90;;;;;;4743045;30;20068;-94
2023/01/12 12:14:13;;;;;;;;;;;11.00;99.90;;;;;;4733549;30;20044;-94
2023/01/12 12:17:02;;;;;;;3.47;1.00;;;11.00;99.90;;;;;;4746558;30;19918;-95
2023/01/12 12:19:50;;;;;;;11.25;2.63;;;11.00;99.90;;;;;;4745340;30;20052;-96
2023/01/12 12:22:44;;;;;;;7.63;1.15;;;11.10;99.90;;;;;;4747103;30;20112;-94
2023/01/12 12:25:25;;;;;;;6.90;1.63;;;11.10;99.90;;;;;;4827067;29;20098;-95
2023/01/12 12:28:18;;;;;;;5.85;1.70;;;11.10;99.90;;;;;;4831982;29;20041;-93
2023/01/12 12:31:12;;;;;;;17.90;2.10;;;11.10;99.90;;;;;;4830316;29;20038;-94
2023/01/12 12:34:08;;;;;;;14.10;2.60;;;11.10;99.90;;;;;;4828494;29;20153;-95
2023/01/12 12:37:01;;;;;;;25.08;1.60;;;11.20;99.90;;;;;;4828700;29;20049;-96
2023/01/12 12:39:56;;;;;;;9.43;1.52;;;11.20;99.90;;;;;;4813692;29;20035;-96
2023/01/12 12:45:28;;;;;;;8.90;1.25;;;11.20;99.90;;;;;;4959178;29;20457;-94
2023/01/12 12:48:00;;;;;;;13.73;2.03;;;11.20;99.90;;;;;;4942712;29;20126;-96
2023/01/12 12:51:06;;;;;;;11.18;1.60;;;11.20;99.90;;;;;;4942145;29;20033;-96
2023/01/12 12:53:46;;;;;;;6.65;1.60;;;11.20;99.90;;;;;;4942517;29;20031;-96
2023/01/12 12:56:15;;;;;;;8.98;1.65;;;11.20;99.90;;;;;;4943706;29;20031;-95
2023/01/12 12:58:57;;;;;;;16.30;2.30;;;11.10;99.90;;;;;;4941807;28;20031;-95
2023/01/12 13:01:26;;;;;;;15.27;2.20;;;11.10;99.90;;;;;;4941456;29;20055;-94
2023/01/12 13:04:00;;;;;;;11.05;1.60;;;11.10;99.90;;;;;;4941523;29;20051;-96
2023/01/12 13:06:31;;;;;;;8.35;1.40;;;11.10;99.90;;;;;;4941710;29;20031;-94
2023/01/12 13:09:10;;;;;;;12.10;1.95;;;11.00;99.90;;;;;;4944297;29;20087;-94
2023/01/12 13:11:59;;;;;;;10.40;1.67;;;11.00;99.90;;;;;;4927606;29;20461;-96
2023/01/12 13:14:36;;;;;;;17.05;2.80;;;11.00;99.90;;;;;;4942571;29;20039;-96
2023/01/12 13:17:23;;;;;;;18.30;2.58;;;11.00;99.90;;;;;;4955107;29;20023;-95
2023/01/12 13:20:04;;;;;;;20.13;2.35;;;11.00;99.90;;;;;;4946241;29;20114;-95
2023/01/12 13:22:38;;;;;;;;;;;11.00;99.90;;;;;;4945272;29;20042;-95
2023/01/12 13:25:23;;;;;;;26.30;2.83;;;11.00;99.90;;;;;;4950786;29;19934;-96
2023/01/12 13:28:08;;;;;;;19.60;2.53;;;11.20;99.90;;;;;;4956060;29;20113;-96
2023/01/12 13:30:55;;;;;;;13.30;2.80;;;11.70;99.90;;;;;;4956814;29;20027;-96
2023/01/12 13:33:50;;;;;;;9.05;2.25;;;12.40;99.90;;;;;;4958804;29;20023;-95
2023/01/12 13:40:43;;;;;;;15.85;2.90;;;13.30;95.10;;;;;;4926312;29;20028;-96
2023/01/12 13:46:45;;;;;;;13.52;3.08;;;13.80;90.00;;;;;;4920874;29;20224;-95
2023/01/12 13:49:43;;;;;;;16.98;2.78;;;13.70;86.90;;;;;;4917471;29;20115;-94
2023/01/12 13:56:30;;;;;;;13.23;2.92;;;13.70;83.90;;;;;;4848986;29;20057;-94
2023/01/12 13:59:21;;;;;;;21.60;3.55;;;13.40;83.20;;;;;;4848099;29;20070;-93
2023/01/12 14:05:21;;;;;;;24.38;3.97;;;12.50;86.30;;;;;;4846613;29;20042;-95
2023/01/12 14:12:01;;;;;;;25.15;4.50;;;12.00;89.10;;;;;;4846114;29;20030;-94
2023/01/12 14:18:07;;;;;;;28.45;4.88;;;12.10;90.40;;;;;;4895051;29;20156;-96
2023/01/12 14:21:01;;;;;;;41.45;6.15;;;12.10;90.60;;;;;;4874998;29;20033;-96
2023/01/12 14:24:15;;;;;;;28.48;4.75;;;12.30;90.70;;;;;;4890381;29;20119;-95
2023/01/12 14:27:24;;;;;;;45.47;8.27;;;12.40;90.70;;;;;;4798480;29;20146;-94
2023/01/12 14:29:59;;;;;;;49.92;8.45;;;12.50;90.50;;;;;;4854172;29;20596;-95
2023/01/12 14:33:32;;;;;;;;;;;;;;;;;;;;;
2023/01/12 14:36:58;;;;;;;33.67;3.78;;;12.60;88.60;;;;;;4901259;29;20052;-96
2023/01/12 14:46:37;;;;;;;44.20;7.93;;;11.30;91.20;;;;;;4790900;30;20071;-95
2023/01/12 14:49:41;;;;;;;42.10;6.15;;;11.00;91.70;;;;;;4791541;29;20043;-94
2023/01/12 14:52:29;;;;;;;;;;;;;;;;;;;;;
2023/01/12 16:36:18;;;;;;;18.15;2.70;;;7.30;99.90;;;;;;4913411;23;1412166;-96
2023/01/12 16:39:11;;;;;;;10.50;2.30;;;7.30;99.90;;;;;;4943406;29;20054;-94
2023/01/12 16:41:53;;;;;;;12.77;2.15;;;7.30;99.90;;;;;;4943015;29;20522;-93
2023/01/12 16:44:22;;;;;;;17.13;3.60;;;7.30;99.90;;;;;;4957390;28;20090;-94
2023/01/12 16:46:50;;;;;;;17.23;3.10;;;7.40;99.90;;;;;;4946610;29;20027;-96
2023/01/12 16:49:19;;;;;;;15.75;2.97;;;7.40;99.90;;;;;;4944942;29;20038;-96
2023/01/12 16:51:45;;;;;;;27.38;5.45;;;7.30;99.90;;;;;;4940821;29;20039;-95
2023/01/12 16:54:14;;;;;;;21.35;3.22;;;7.20;99.90;;;;;;4940625;29;20027;-94
2023/01/12 16:56:42;;;;;;;22.77;4.05;;;7.20;99.90;;;;;;4941392;29;20039;-95
2023/01/12 16:59:08;;;;;;;22.02;3.40;;;7.20;99.90;;;;;;4950312;29;20029;-95
2023/01/12 17:01:34;;;;;;;25.75;3.80;;;7.20;99.90;;;;;;4935108;29;20079;-94
2023/01/12 17:04:00;;;;;;;18.20;3.28;;;7.20;99.90;;;;;;4919004;29;20074;-91
2023/01/12 17:06:28;;;;;;;25.67;3.45;;;7.20;99.90;;;;;;4924659;29;20038;-93
2023/01/12 17:09:01;;;;;;;17.42;3.30;;;7.30;99.90;;;;;;4952252;29;20110;-94
2023/01/12 17:11:29;;;;;;;30.55;5.30;;;7.30;99.90;;;;;;4933489;29;20062;-94
2023/01/12 17:13:58;;;;;;;16.70;4.47;;;7.30;99.90;;;;;;4932732;29;20043;-95